createdAt,value
2019-01-12T00:02:29.141Z,31.00
2019-01-12T00:05:18.611Z,38.47
2019-01-12T00:08:08.228Z,33.07
2019-01-12T00:10:57.337Z,26.20
2019-01-12T00:13:46.701Z,35.53
2019-01-12T00:16:35.845Z,28.00
2019-01-12T00:19:05.934Z,29.10
2019-01-12T00:21:54.411Z,23.10
2019-01-12T00:24:43.456Z,18.83
2019-01-12T00:27:32.410Z,19.17
2019-01-12T00:30:21.538Z,20.47
2019-01-12T00:33:11.333Z,25.10
2019-01-12T00:36:00.038Z,25.80
2019-01-12T00:38:50.669Z,20.03
2019-01-12T00:41:39.415Z,23.93
2019-01-12T00:44:28.593Z,19.50
2019-01-12T00:47:17.276Z,17.57
2019-01-12T00:50:07.973Z,23.70
2019-01-12T00:52:56.693Z,20.00
2019-01-12T00:55:45.325Z,22.47
2019-01-12T00:58:34.494Z,19.37
2019-01-12T01:01:23.374Z,21.47
2019-01-12T01:04:12.261Z,21.30
2019-01-12T01:07:01.402Z,20.57
2019-01-12T01:09:50.055Z,20.63
2019-01-12T01:12:38.480Z,18.30
2019-01-12T01:15:27.166Z,19.73
2019-01-12T01:18:00.216Z,22.53
2019-01-12T01:20:49.243Z,24.87
2019-01-12T01:23:37.979Z,19.93
2019-01-12T01:26:26.276Z,25.40
2019-01-12T01:29:15.201Z,20.87
2019-01-12T01:32:04.381Z,21.50
2019-01-12T01:34:53.469Z,20.77
2019-01-12T01:37:42.419Z,27.27
2019-01-12T01:40:31.604Z,22.93
2019-01-12T01:43:20.557Z,21.90
2019-01-12T01:46:08.835Z,23.27
2019-01-12T01:48:38.973Z,24.50
2019-01-12T01:51:28.019Z,24.03
2019-01-12T01:54:17.256Z,26.37
2019-01-12T01:57:06.256Z,20.27
2019-01-12T01:59:54.900Z,23.57
2019-01-12T02:02:43.815Z,21.87
2019-01-12T02:05:32.452Z,26.53
2019-01-12T02:08:21.650Z,19.17
2019-01-12T02:11:10.380Z,25.40
2019-01-12T02:13:59.705Z,23.77
2019-01-12T02:16:48.259Z,21.73
2019-01-12T02:19:37.107Z,22.43
2019-01-12T02:22:26.007Z,21.60
2019-01-12T02:25:15.086Z,23.07
2019-01-12T02:28:04.027Z,21.60
2019-01-12T02:30:53.081Z,24.40
2019-01-12T02:33:41.720Z,26.10
2019-01-12T02:36:30.708Z,31.70
2019-01-12T02:39:08.236Z,32.97
2019-01-12T02:41:57.158Z,29.10
2019-01-12T02:44:45.860Z,28.80
2019-01-12T02:47:34.268Z,32.93
2019-01-12T02:50:22.935Z,29.90
2019-01-12T02:53:11.807Z,28.10
2019-01-12T02:56:00.919Z,28.00
2019-01-12T02:58:49.822Z,30.13
2019-01-12T03:01:38.889Z,30.80
2019-01-12T03:04:28.514Z,30.73
2019-01-12T03:07:17.436Z,30.33
2019-01-12T03:10:08.253Z,34.83
2019-01-12T03:12:57.543Z,34.27
2019-01-12T03:15:45.875Z,36.23
2019-01-12T03:18:34.914Z,39.50
2019-01-12T03:21:24.051Z,37.33
2019-01-12T03:24:12.706Z,41.87
2019-01-12T03:27:01.839Z,34.23
2019-01-12T03:29:50.742Z,30.20
2019-01-12T03:32:39.541Z,37.83
2019-01-12T03:35:28.990Z,33.13
2019-01-12T03:38:17.787Z,34.30
2019-01-12T03:41:06.743Z,30.03
2019-01-12T03:43:55.017Z,32.07
2019-01-12T03:46:44.024Z,28.47
2019-01-12T03:49:32.829Z,32.87
2019-01-12T03:52:21.909Z,35.13
2019-01-12T03:55:10.951Z,33.20
2019-01-12T03:57:59.990Z,31.03
2019-01-12T04:00:48.348Z,34.20
2019-01-12T04:03:37.663Z,36.83
2019-01-12T04:06:27.206Z,34.00
2019-01-12T04:09:16.186Z,37.03
2019-01-12T04:12:05.150Z,36.00
2019-01-12T04:14:54.008Z,36.77
2019-01-12T04:17:43.346Z,37.07
2019-01-12T04:20:31.864Z,34.50
2019-01-12T04:23:20.417Z,29.97
2019-01-12T04:26:09.845Z,31.27
2019-01-12T04:28:39.812Z,30.73
2019-01-12T04:31:29.235Z,32.33
2019-01-12T04:34:18.337Z,28.73
2019-01-12T04:37:06.844Z,30.13
2019-01-12T04:39:55.840Z,29.07
2019-01-12T04:42:45.259Z,31.80
2019-01-12T04:45:34.261Z,33.03
2019-01-12T04:48:23.698Z,30.37
2019-01-12T04:51:12.193Z,27.00
2019-01-12T04:54:00.590Z,29.23
2019-01-12T04:56:31.513Z,25.60
2019-01-12T04:59:20.600Z,29.27
2019-01-12T05:02:09.535Z,26.47
2019-01-12T05:04:58.286Z,24.47
2019-01-12T05:07:46.924Z,24.43
2019-01-12T05:10:35.372Z,23.30
2019-01-12T05:13:24.766Z,27.80
2019-01-12T05:16:13.266Z,23.00
2019-01-12T05:19:02.149Z,22.23
2019-01-12T05:21:51.342Z,20.20
2019-01-12T05:24:37.282Z,23.53
2019-01-12T05:27:26.366Z,20.10
2019-01-12T05:30:17.685Z,17.90
2019-01-12T05:33:06.604Z,25.07
2019-01-12T05:35:55.751Z,18.73
2019-01-12T05:38:25.827Z,21.47
2019-01-12T05:41:14.562Z,23.27
2019-01-12T05:44:03.618Z,19.67
2019-01-12T05:46:52.464Z,20.37
2019-01-12T05:49:40.915Z,23.70
2019-01-12T05:52:29.829Z,19.93
2019-01-12T05:55:18.776Z,21.10
2019-01-12T05:58:07.658Z,19.00
2019-01-12T06:00:56.824Z,17.87
2019-01-12T06:03:45.462Z,18.90
2019-01-12T06:06:15.557Z,14.30
2019-01-12T06:09:05.873Z,19.77
2019-01-12T06:11:54.368Z,15.80
2019-01-12T06:14:43.356Z,15.03
2019-01-12T06:17:32.498Z,17.20
2019-01-12T06:20:21.313Z,33.10
2019-01-12T06:23:10.545Z,37.43
2019-01-12T06:26:03.828Z,33.30
2019-01-12T06:28:50.059Z,25.70
2019-01-12T06:31:39.193Z,27.80
2019-01-12T06:34:27.929Z,31.43
2019-01-12T06:37:17.095Z,38.33
2019-01-12T06:40:08.418Z,33.83
2019-01-12T06:42:57.956Z,21.07
2019-01-12T06:45:49.297Z,29.37
2019-01-12T06:48:38.817Z,25.37
2019-01-12T06:51:28.375Z,30.03
2019-01-12T06:54:17.108Z,36.07
2019-01-12T06:57:05.968Z,31.60
2019-01-12T06:59:54.614Z,39.93
2019-01-12T07:02:43.825Z,35.50
2019-01-12T07:05:32.520Z,41.03
2019-01-12T07:08:21.709Z,34.83
2019-01-12T07:11:10.305Z,33.67
2019-01-12T07:13:59.174Z,31.43
2019-01-12T07:16:48.327Z,29.63
2019-01-12T07:19:37.516Z,25.80
2019-01-12T07:22:26.501Z,31.47
2019-01-12T07:25:15.495Z,29.63
2019-01-12T07:28:04.345Z,24.93
2019-01-12T07:30:53.714Z,29.27
2019-01-12T07:33:43.040Z,24.90
2019-01-12T07:36:32.082Z,27.10
2019-01-12T07:39:20.637Z,26.87
2019-01-12T07:42:08.988Z,26.30
2019-01-12T07:44:57.630Z,25.30
2019-01-12T07:47:46.683Z,25.77
2019-01-12T07:50:35.859Z,24.87
2019-01-12T07:53:24.845Z,24.40
2019-01-12T07:56:13.728Z,29.37
2019-01-12T07:59:02.981Z,27.10
2019-01-12T08:01:51.714Z,30.17
2019-01-12T08:04:40.765Z,36.07
2019-01-12T08:07:30.123Z,35.70
2019-01-12T08:10:24.290Z,30.13
2019-01-12T08:13:14.021Z,38.80
2019-01-12T08:16:03.042Z,34.00
2019-01-12T08:18:52.227Z,35.17
2019-01-12T08:21:41.216Z,34.23
2019-01-12T08:24:30.670Z,35.37
2019-01-12T08:27:19.676Z,31.10
2019-01-12T08:30:11.406Z,33.00
2019-01-12T08:33:00.826Z,35.50
2019-01-12T08:35:49.423Z,32.80
2019-01-12T08:38:38.628Z,31.37
2019-01-12T08:41:27.635Z,33.03
2019-01-12T08:44:17.001Z,31.13
2019-01-12T08:47:05.408Z,35.13
2019-01-12T08:49:54.658Z,37.53
2019-01-12T08:52:43.932Z,37.53
2019-01-12T08:55:34.752Z,33.00
2019-01-12T08:58:23.822Z,35.00
2019-01-12T09:01:12.855Z,34.83
2019-01-12T09:04:01.429Z,37.77
2019-01-12T09:06:50.164Z,40.40
2019-01-12T09:09:38.958Z,37.13
2019-01-12T09:12:28.457Z,37.67
2019-01-12T09:15:17.374Z,39.37
2019-01-12T09:18:07.292Z,42.60
2019-01-12T09:20:56.180Z,41.30
2019-01-12T09:23:45.375Z,41.00
2019-01-12T09:26:34.812Z,39.23
2019-01-12T09:29:23.270Z,42.10
2019-01-12T09:32:12.999Z,44.67
2019-01-12T09:35:02.045Z,51.10
2019-01-12T09:37:50.997Z,39.97
2019-01-12T09:40:39.791Z,37.90
2019-01-12T09:43:29.014Z,44.20
2019-01-12T09:46:18.539Z,38.47
2019-01-12T09:49:07.980Z,38.40
2019-01-12T09:51:56.661Z,34.00
2019-01-12T09:54:45.706Z,40.60
2019-01-12T09:57:34.851Z,41.10
2019-01-12T10:00:28.041Z,39.87
2019-01-12T10:03:17.194Z,38.60
2019-01-12T10:06:06.641Z,39.07
2019-01-12T10:08:56.118Z,40.13
2019-01-12T10:11:44.629Z,37.60
2019-01-12T10:14:34.143Z,37.50
2019-01-12T10:17:23.198Z,41.20
2019-01-12T10:20:15.093Z,39.50
2019-01-12T10:23:03.888Z,38.00
2019-01-12T10:25:53.194Z,41.57
2019-01-12T10:28:42.574Z,37.47
2019-01-12T10:31:31.175Z,36.13
2019-01-12T10:34:20.004Z,36.80
2019-01-12T10:37:08.939Z,35.73
2019-01-12T10:39:58.452Z,39.10
2019-01-12T10:42:48.327Z,36.17
2019-01-12T10:45:37.350Z,37.20
2019-01-12T10:48:25.953Z,35.90
2019-01-12T10:51:14.922Z,35.80
2019-01-12T10:54:04.162Z,35.77
2019-01-12T10:56:54.154Z,35.90
2019-01-12T10:59:43.255Z,39.10
2019-01-12T11:02:33.389Z,38.43
2019-01-12T11:05:22.334Z,35.87
2019-01-12T11:08:11.892Z,36.47
2019-01-12T11:11:00.863Z,35.57
2019-01-12T11:13:49.727Z,34.20
2019-01-12T11:16:38.916Z,34.90
2019-01-12T11:19:28.253Z,31.80
2019-01-12T11:22:17.726Z,31.93
2019-01-12T11:25:07.817Z,36.70
2019-01-12T11:27:56.574Z,31.83
2019-01-12T11:30:45.836Z,34.00
2019-01-12T11:33:34.799Z,35.87
2019-01-12T11:36:24.497Z,34.20
2019-01-12T11:39:13.792Z,36.43
2019-01-12T11:42:02.577Z,38.10
2019-01-12T11:44:51.965Z,38.20
2019-01-12T11:47:41.184Z,35.80
2019-01-12T11:50:30.301Z,38.40
2019-01-12T11:53:19.996Z,34.10
2019-01-12T11:56:08.724Z,37.30
2019-01-12T11:58:58.390Z,31.23
2019-01-12T12:01:47.588Z,35.43
2019-01-12T12:04:38.796Z,39.90
2019-01-12T12:07:27.827Z,37.47
2019-01-12T12:10:17.487Z,34.07
2019-01-12T12:13:06.145Z,31.07
2019-01-12T12:15:55.089Z,30.13
2019-01-12T12:18:44.443Z,36.97
2019-01-12T12:21:33.464Z,32.83
2019-01-12T12:24:22.369Z,30.67
2019-01-12T12:27:11.036Z,25.80
2019-01-12T12:30:00.195Z,30.33
2019-01-12T12:32:49.812Z,33.40
2019-01-12T12:35:39.302Z,28.87
2019-01-12T12:38:28.504Z,31.33
2019-01-12T12:41:18.084Z,29.53
2019-01-12T12:44:07.380Z,28.90
2019-01-12T12:46:56.279Z,29.40
2019-01-12T12:49:45.589Z,28.60
2019-01-12T12:52:34.831Z,26.70
2019-01-12T12:55:24.309Z,25.37
2019-01-12T12:58:32.894Z,29.73
2019-01-12T13:01:21.998Z,28.17
2019-01-12T13:04:11.281Z,28.30
2019-01-12T13:07:00.488Z,28.63
2019-01-12T13:09:49.917Z,27.30
2019-01-12T13:12:39.032Z,23.43
2019-01-12T13:15:28.471Z,25.87
2019-01-12T13:18:17.206Z,25.43
2019-01-12T13:21:08.659Z,19.67
2019-01-12T13:24:00.228Z,20.50
2019-01-12T13:26:49.758Z,24.20
2019-01-12T13:29:22.439Z,22.40
2019-01-12T13:31:51.994Z,24.27
2019-01-12T13:34:30.260Z,21.60
2019-01-12T13:37:00.815Z,21.67
2019-01-12T13:39:32.130Z,18.10
2019-01-12T13:42:06.050Z,24.00
2019-01-12T13:44:36.419Z,19.03
2019-01-12T13:47:06.508Z,20.23
2019-01-12T13:49:38.395Z,19.57
2019-01-12T13:52:09.975Z,20.60
2019-01-12T13:54:40.396Z,16.90
2019-01-12T13:57:29.311Z,16.50
2019-01-12T14:00:38.116Z,16.77
2019-01-12T14:03:26.689Z,18.20
2019-01-12T14:06:15.736Z,22.00
2019-01-12T14:08:53.013Z,17.50
2019-01-12T14:11:42.085Z,18.60
2019-01-12T14:14:31.459Z,19.07
2019-01-12T14:17:20.839Z,22.40
2019-01-12T14:20:14.196Z,17.33
2019-01-12T14:23:03.463Z,16.20
2019-01-12T14:25:53.056Z,16.90
2019-01-12T14:28:42.508Z,19.53
2019-01-12T14:31:31.699Z,18.17
2019-01-12T14:34:20.485Z,16.87
2019-01-12T14:37:09.597Z,16.20
2019-01-12T14:39:58.611Z,14.17
2019-01-12T14:42:47.995Z,16.80
2019-01-12T14:45:37.470Z,17.13
2019-01-12T14:48:26.567Z,14.07
2019-01-12T14:51:15.790Z,14.30
2019-01-12T14:54:05.190Z,14.40
2019-01-12T14:56:54.669Z,11.57
2019-01-12T14:59:43.396Z,12.50
2019-01-12T15:02:32.851Z,12.70
2019-01-12T15:05:23.898Z,14.07
2019-01-12T15:08:13.252Z,11.50
2019-01-12T15:11:02.203Z,11.60
2019-01-12T15:13:50.618Z,11.37
2019-01-12T15:16:39.549Z,15.03
2019-01-12T15:19:28.215Z,12.97
2019-01-12T15:22:19.658Z,13.67
2019-01-12T15:25:09.245Z,12.63
2019-01-12T15:27:42.781Z,14.20
2019-01-12T15:30:33.106Z,12.70
2019-01-12T15:33:22.581Z,13.27
2019-01-12T15:36:11.381Z,14.20
2019-01-12T15:39:01.735Z,12.90
2019-01-12T15:41:50.731Z,13.77
2019-01-12T15:44:20.859Z,15.93
2019-01-12T15:47:10.177Z,15.10
2019-01-12T15:50:01.662Z,13.70
2019-01-12T15:52:51.019Z,14.90
2019-01-12T15:55:39.679Z,16.53
2019-01-12T15:58:28.336Z,17.27
2019-01-12T16:01:17.641Z,17.40
2019-01-12T16:04:07.314Z,20.53
2019-01-12T16:06:56.422Z,18.87
2019-01-12T16:09:45.638Z,19.33
2019-01-12T16:12:34.649Z,18.60
2019-01-12T16:15:25.722Z,19.80
2019-01-12T16:18:14.609Z,20.37
2019-01-12T16:21:03.500Z,19.93
2019-01-12T16:23:53.154Z,23.03
2019-01-12T16:26:42.007Z,21.83
2019-01-12T16:29:31.339Z,23.87
2019-01-12T16:32:20.592Z,20.53
2019-01-12T16:35:09.733Z,22.60
2019-01-12T16:37:58.860Z,21.63
2019-01-12T16:40:48.071Z,21.00
2019-01-12T16:43:18.702Z,18.87
2019-01-12T16:46:07.803Z,20.40
2019-01-12T16:48:57.306Z,19.10
2019-01-12T16:51:46.513Z,18.07
2019-01-12T16:54:35.813Z,20.60
2019-01-12T16:57:24.971Z,19.17
2019-01-12T17:00:18.382Z,19.27
2019-01-12T17:03:07.735Z,18.50
2019-01-12T17:05:57.674Z,23.27
2019-01-12T17:08:46.222Z,16.27
2019-01-12T17:11:35.357Z,20.50
2019-01-12T17:14:24.751Z,17.50
2019-01-12T17:17:14.314Z,23.23
2019-01-12T17:20:03.217Z,23.03
2019-01-12T17:22:53.229Z,21.50
2019-01-12T17:25:42.507Z,20.47
2019-01-12T17:28:37.298Z,25.73
2019-01-12T17:31:22.576Z,18.03
2019-01-12T17:34:11.829Z,18.30
2019-01-12T17:37:01.395Z,18.80
2019-01-12T17:39:50.690Z,17.30
2019-01-12T17:42:40.036Z,21.50
2019-01-12T17:45:28.760Z,19.83
2019-01-12T17:48:18.830Z,17.77
2019-01-12T17:50:55.396Z,15.87
2019-01-12T17:53:44.371Z,18.53
2019-01-12T17:56:33.937Z,17.93
2019-01-12T17:59:23.305Z,19.73
2019-01-12T18:02:12.117Z,20.80
2019-01-12T18:05:01.302Z,18.53
2019-01-12T18:07:50.611Z,16.27
2019-01-12T18:10:39.644Z,13.03
2019-01-12T18:13:28.718Z,13.83
2019-01-12T18:16:17.789Z,12.27
2019-01-12T18:19:07.049Z,10.57
2019-01-12T18:21:37.190Z,9.80
2019-01-12T18:24:26.589Z,8.73
2019-01-12T18:27:15.837Z,10.33
2019-01-12T18:30:06.707Z,9.67
2019-01-12T18:32:56.109Z,8.70
2019-01-12T18:35:45.821Z,9.90
2019-01-12T18:38:35.247Z,9.83
2019-01-12T18:41:24.271Z,9.17
2019-01-12T18:44:13.007Z,7.43
2019-01-12T18:47:02.102Z,6.93
2019-01-12T18:49:51.765Z,7.90
2019-01-12T18:52:41.140Z,7.17
2019-01-12T18:55:30.428Z,8.50
2019-01-12T18:58:20.338Z,8.70
2019-01-12T19:01:10.057Z,10.77
2019-01-12T19:03:59.390Z,9.20
2019-01-12T19:06:48.562Z,9.57
2019-01-12T19:09:38.672Z,8.97
2019-01-12T19:12:27.969Z,8.63
2019-01-12T19:15:24.745Z,8.60
2019-01-12T19:18:13.877Z,10.60
2019-01-12T19:21:03.016Z,9.83
2019-01-12T19:23:51.719Z,7.63
2019-01-12T19:26:37.178Z,9.33
2019-01-12T19:29:26.353Z,11.10
2019-01-12T19:32:15.397Z,14.00
2019-01-12T19:35:04.823Z,16.80
2019-01-12T19:37:53.897Z,10.53
2019-01-12T19:40:44.540Z,12.87
2019-01-12T19:43:33.697Z,13.03
2019-01-12T19:46:23.208Z,16.10
2019-01-12T19:49:12.858Z,14.47
2019-01-12T19:52:01.892Z,15.30
2019-01-12T19:54:55.107Z,11.30
2019-01-12T19:57:44.242Z,13.83
2019-01-12T20:00:34.923Z,12.87
2019-01-12T20:03:24.041Z,13.80
2019-01-12T20:06:17.239Z,12.60
2019-01-12T20:09:06.932Z,15.97
2019-01-12T20:11:55.514Z,13.50
2019-01-12T20:14:44.578Z,13.83
2019-01-12T20:17:33.915Z,14.97
2019-01-12T20:20:27.342Z,14.13
2019-01-12T20:23:17.029Z,13.77
2019-01-12T20:26:09.530Z,16.00
2019-01-12T20:28:58.917Z,15.67
2019-01-12T20:32:26.318Z,16.73
2019-01-12T20:35:58.972Z,19.70
2019-01-12T20:39:26.911Z,20.90
2019-01-12T20:42:54.421Z,13.80
2019-01-12T20:46:34.056Z,14.23
2019-01-12T20:49:34.208Z,14.40
2019-01-12T20:52:59.452Z,13.03
2019-01-12T20:56:24.714Z,15.83
2019-01-12T20:59:28.287Z,18.73
2019-01-12T21:03:09.159Z,15.73
2019-01-12T21:06:48.178Z,15.97
2019-01-12T21:10:14.324Z,21.03
2019-01-12T21:13:54.614Z,16.90
2019-01-12T21:16:54.372Z,14.00
2019-01-12T21:19:48.027Z,15.53
2019-01-12T21:22:15.968Z,17.63
2019-01-12T21:24:46.451Z,19.13
2019-01-12T21:27:16.924Z,19.53
2019-01-12T21:29:47.357Z,16.17
2019-01-12T21:32:17.968Z,13.67
2019-01-12T21:34:48.274Z,13.10
2019-01-12T21:37:18.586Z,14.50
2019-01-12T21:39:48.729Z,15.00
2019-01-12T21:42:19.088Z,13.90
2019-01-12T21:44:52.257Z,12.63
2019-01-12T21:47:22.499Z,14.40
2019-01-12T21:49:52.546Z,12.20
2019-01-12T21:52:22.869Z,15.03
2019-01-12T21:54:53.079Z,13.33
2019-01-12T21:57:23.478Z,11.50
2019-01-12T21:59:53.743Z,13.93
2019-01-12T22:02:23.938Z,12.97
2019-01-12T22:04:54.652Z,14.60
2019-01-12T22:07:24.643Z,14.80
2019-01-12T22:09:55.052Z,13.20
2019-01-12T22:12:25.237Z,16.53
2019-01-12T22:14:55.440Z,19.30
2019-01-12T22:17:44.499Z,20.27
2019-01-12T22:20:33.802Z,17.13
2019-01-12T22:23:23.369Z,15.30
2019-01-12T22:26:12.366Z,16.40
2019-01-12T22:29:01.754Z,15.10
2019-01-12T22:31:50.773Z,16.27
2019-01-12T22:34:39.987Z,16.77
2019-01-12T22:37:29.340Z,21.53
2019-01-12T22:40:19.466Z,17.53
2019-01-12T22:43:27.532Z,18.47
2019-01-12T22:46:04.255Z,18.93
2019-01-12T22:48:53.306Z,17.57
2019-01-12T22:51:42.425Z,21.80
2019-01-12T22:54:31.594Z,19.20
2019-01-12T22:57:21.255Z,16.03
2019-01-12T23:00:28.287Z,19.37
2019-01-12T23:03:17.674Z,23.93
2019-01-12T23:06:06.457Z,20.57
2019-01-12T23:08:55.247Z,22.40
2019-01-12T23:11:44.199Z,21.27
2019-01-12T23:14:33.339Z,25.37
2019-01-12T23:17:03.669Z,18.87
2019-01-12T23:19:52.959Z,17.80
2019-01-12T23:22:42.149Z,23.47
2019-01-12T23:25:31.244Z,20.80
2019-01-12T23:28:20.488Z,20.57
2019-01-12T23:31:09.389Z,20.20
2019-01-12T23:34:00.193Z,23.03
2019-01-12T23:36:50.191Z,18.47
2019-01-12T23:39:50.692Z,18.37
2019-01-12T23:42:39.874Z,23.83
2019-01-12T23:45:29.490Z,20.10
2019-01-12T23:48:18.413Z,18.23
2019-01-12T23:51:07.683Z,24.70
2019-01-12T23:53:56.475Z,21.17
2019-01-12T23:56:45.732Z,16.53
2019-01-12T23:59:34.872Z,20.70
